createdAt,value
2018-05-18T00:00:30.354Z,74.60
2018-05-18T00:03:32.818Z,74.30
2018-05-18T00:06:35.284Z,74.10
2018-05-18T00:09:38.491Z,74.40
2018-05-18T00:12:40.957Z,74.30
2018-05-18T00:15:43.402Z,74.30
2018-05-18T00:18:45.865Z,73.80
2018-05-18T00:21:48.334Z,73.90
2018-05-18T00:24:50.783Z,73.80
2018-05-18T00:27:53.259Z,73.70
2018-05-18T00:30:55.697Z,73.90
2018-05-18T00:33:58.929Z,74.00
2018-05-18T00:37:01.387Z,74.00
2018-05-18T00:40:03.873Z,74.00
2018-05-18T00:43:06.293Z,74.10
2018-05-18T00:46:08.751Z,74.20
2018-05-18T00:49:11.214Z,74.30
2018-05-18T00:52:13.669Z,75.30
2018-05-18T00:55:27.951Z,74.70
2018-05-18T00:58:30.407Z,74.60
2018-05-18T01:01:32.855Z,74.70
2018-05-18T01:04:35.304Z,74.70
2018-05-18T01:07:37.770Z,74.80
2018-05-18T01:10:40.217Z,74.70
2018-05-18T01:13:42.673Z,74.80
2018-05-18T01:16:45.885Z,75.20
2018-05-18T01:19:48.342Z,75.10
2018-05-18T01:22:51.566Z,75.20
2018-05-18T01:25:54.009Z,75.20
2018-05-18T01:28:57.233Z,75.10
2018-05-18T01:31:59.682Z,75.00
2018-05-18T01:35:08.921Z,75.60
2018-05-18T01:38:12.141Z,75.60
2018-05-18T01:41:14.640Z,75.50
2018-05-18T01:44:17.097Z,75.60
2018-05-18T01:47:19.545Z,75.60
2018-05-18T01:50:22.765Z,76.30
2018-05-18T01:53:25.226Z,76.30
2018-05-18T01:56:27.676Z,76.30
2018-05-18T01:59:30.139Z,76.40
2018-05-18T02:02:32.585Z,76.30
2018-05-18T02:05:35.049Z,76.30
2018-05-18T02:08:37.513Z,76.40
2018-05-18T02:11:39.970Z,76.30
2018-05-18T02:14:42.433Z,76.30
2018-05-18T02:17:44.877Z,76.30
2018-05-18T02:20:47.338Z,76.20
2018-05-18T02:23:49.814Z,75.90
2018-05-18T02:26:52.258Z,76.10
2018-05-18T02:29:54.728Z,76.00
2018-05-18T02:32:57.962Z,75.80
2018-05-18T02:36:00.413Z,75.80
2018-05-18T02:39:03.634Z,76.20
2018-05-18T02:42:06.093Z,76.10
2018-05-18T02:45:08.541Z,76.20
2018-05-18T02:48:11.770Z,76.20
2018-05-18T02:51:14.220Z,76.70
2018-05-18T02:54:17.446Z,76.80
2018-05-18T02:57:19.897Z,76.80
2018-05-18T03:00:23.120Z,76.30
2018-05-18T03:03:25.584Z,76.20
2018-05-18T03:06:28.029Z,76.30
2018-05-18T03:09:30.489Z,76.20
2018-05-18T03:12:32.939Z,76.20
2018-05-18T03:15:35.393Z,76.40
2018-05-18T03:18:37.866Z,76.20
2018-05-18T03:21:40.490Z,76.30
2018-05-18T03:24:42.951Z,77.60
2018-05-18T03:27:45.398Z,77.90
2018-05-18T03:30:47.853Z,78.10
2018-05-18T03:33:51.077Z,78.20
2018-05-18T03:36:53.521Z,78.20
2018-05-18T03:39:56.741Z,78.40
2018-05-18T03:42:59.185Z,78.30
2018-05-18T03:46:01.634Z,78.50
2018-05-18T03:49:04.102Z,78.80
2018-05-18T03:52:06.545Z,78.50
2018-05-18T03:55:09.021Z,78.50
2018-05-18T03:58:11.466Z,78.70
2018-05-18T04:01:25.742Z,78.80
2018-05-18T04:04:40.005Z,78.60
2018-05-18T04:07:48.475Z,78.70
2018-05-18T04:10:50.908Z,78.50
2018-05-18T04:13:53.345Z,77.90
2018-05-18T04:16:56.574Z,78.90
2018-05-18T04:19:59.032Z,78.50
2018-05-18T04:23:02.240Z,78.60
2018-05-18T04:26:04.703Z,78.40
2018-05-18T04:29:07.918Z,78.40
2018-05-18T04:32:10.374Z,78.30
2018-05-18T04:35:13.607Z,76.80
2018-05-18T04:38:16.050Z,76.70
2018-05-18T04:41:18.515Z,76.30
2018-05-18T04:44:21.729Z,77.90
2018-05-18T04:47:24.205Z,77.90
2018-05-18T04:50:26.653Z,78.40
2018-05-18T04:53:29.099Z,78.40
2018-05-18T04:56:31.561Z,78.30
2018-05-18T04:59:34.019Z,78.00
2018-05-18T05:02:36.480Z,78.30
2018-05-18T05:05:39.701Z,78.70
2018-05-18T05:08:42.163Z,78.60
2018-05-18T05:11:44.621Z,78.60
2018-05-18T05:14:47.839Z,78.70
2018-05-18T05:17:50.299Z,78.70
2018-05-18T05:20:52.766Z,78.90
2018-05-18T05:23:55.204Z,78.60
2018-05-18T05:26:57.659Z,78.80
2018-05-18T05:30:00.105Z,78.50
2018-05-18T05:33:02.561Z,78.60
2018-05-18T05:36:05.017Z,78.50
2018-05-18T05:39:07.470Z,78.50
2018-05-18T05:42:09.929Z,78.70
2018-05-18T05:45:12.378Z,78.50
2018-05-18T05:48:15.606Z,78.20
2018-05-18T05:51:18.066Z,78.10
2018-05-18T05:54:20.514Z,78.70
2018-05-18T05:57:22.974Z,79.10
2018-05-18T06:00:25.424Z,78.90
2018-05-18T06:03:27.873Z,78.60
2018-05-18T06:06:30.333Z,78.80
2018-05-18T06:09:33.549Z,78.70
2018-05-18T06:12:36.002Z,78.70
2018-05-18T06:15:38.456Z,78.90
2018-05-18T06:18:41.171Z,79.00
2018-05-18T06:21:44.382Z,79.50
2018-05-18T06:24:46.825Z,79.40
2018-05-18T06:27:50.053Z,79.30
2018-05-18T06:30:52.496Z,79.30
2018-05-18T06:33:55.825Z,79.20
2018-05-18T06:36:58.285Z,79.10
2018-05-18T06:40:00.730Z,78.70
2018-05-18T06:43:03.190Z,78.30
2018-05-18T06:46:05.631Z,78.20
2018-05-18T06:49:08.093Z,78.70
2018-05-18T06:52:10.550Z,78.60
2018-05-18T06:55:13.765Z,76.30
2018-05-18T06:58:16.218Z,76.20
2018-05-18T07:01:33.182Z,76.20
2018-05-18T07:04:35.625Z,76.40
2018-05-18T07:07:38.093Z,77.80
2018-05-18T07:10:41.309Z,78.00
2018-05-18T07:13:43.758Z,78.00
2018-05-18T07:16:46.986Z,76.20
2018-05-18T07:19:49.442Z,76.20
2018-05-18T07:22:54.640Z,76.20
2018-05-18T07:25:57.031Z,76.10
2018-05-18T07:28:59.485Z,77.20
2018-05-18T07:32:12.718Z,77.30
2018-05-18T07:35:20.913Z,76.20
2018-05-18T07:38:26.509Z,76.10
2018-05-18T07:41:32.669Z,75.30
2018-05-18T07:44:43.418Z,75.50
2018-05-18T07:47:45.875Z,77.00
2018-05-18T07:50:50.258Z,76.30
2018-05-18T07:57:26.526Z,76.70
2018-05-18T08:00:40.449Z,76.80
2018-05-18T08:03:42.919Z,76.40
2018-05-18T08:06:51.154Z,76.40
2018-05-18T08:09:57.224Z,76.10
2018-05-18T08:13:16.658Z,75.90
2018-05-18T08:16:29.902Z,75.80
2018-05-18T08:19:36.095Z,75.50
2018-05-18T08:33:08.022Z,74.10
2018-05-18T08:36:34.110Z,73.50
2018-05-18T08:43:17.287Z,71.80
2018-05-18T08:46:30.517Z,71.50
2018-05-18T08:53:19.065Z,71.70
2018-05-18T09:00:03.329Z,70.00
2018-05-18T09:03:10.166Z,70.10
2018-05-18T09:06:14.584Z,70.50
2018-05-18T09:09:41.806Z,70.30
2018-05-18T09:13:01.354Z,71.70
2018-05-18T09:16:22.669Z,71.30
2018-05-18T09:19:38.736Z,71.50
2018-05-18T09:22:47.349Z,71.30
2018-05-18T09:26:08.718Z,71.30
2018-05-18T09:29:13.112Z,70.30
2018-05-18T09:32:34.542Z,71.20
2018-05-18T09:35:37.011Z,71.20
2018-05-18T09:38:40.273Z,71.50
2018-05-18T09:41:44.720Z,71.40
2018-05-18T09:44:59.859Z,70.60
2018-05-18T09:48:08.985Z,70.50
2018-05-18T09:51:13.341Z,71.00
2018-05-18T09:54:17.694Z,71.40
2018-05-18T09:57:26.277Z,70.70
2018-05-18T10:00:32.853Z,70.90
2018-05-18T10:03:39.314Z,70.60
2018-05-18T10:06:42.725Z,70.50
2018-05-18T10:09:46.945Z,71.10
2018-05-18T10:12:54.330Z,71.00
2018-05-18T10:16:15.803Z,71.10
2018-05-18T10:19:36.914Z,72.00
2018-05-18T10:22:59.275Z,71.30
2018-05-18T10:26:01.737Z,71.50
2018-05-18T10:29:09.506Z,71.30
2018-05-18T10:32:18.625Z,70.70
2018-05-18T10:35:22.851Z,70.70
2018-05-18T10:38:26.057Z,70.80
2018-05-18T10:41:28.522Z,70.40
2018-05-18T10:44:38.421Z,69.60
2018-05-18T10:47:58.997Z,69.60
2018-05-18T10:51:01.458Z,69.40
2018-05-18T10:57:49.536Z,67.90
2018-05-18T11:00:56.189Z,68.10
2018-05-18T11:07:32.165Z,68.30
2018-05-18T11:10:34.629Z,68.30
2018-05-18T11:13:40.906Z,68.30
2018-05-18T11:16:45.333Z,68.40
2018-05-18T11:19:52.930Z,68.70
2018-05-18T11:23:04.385Z,68.90
2018-05-18T11:26:10.682Z,68.90
2018-05-18T11:29:14.889Z,68.30
2018-05-18T11:32:19.013Z,68.10
2018-05-18T11:35:27.812Z,68.10
2018-05-18T11:38:43.563Z,68.10
2018-05-18T11:41:47.037Z,68.00
2018-05-18T11:44:53.596Z,68.00
2018-05-18T11:47:58.064Z,68.00
2018-05-18T11:51:19.790Z,68.30
2018-05-18T11:54:27.445Z,68.30
2018-05-18T11:57:34.129Z,67.90
2018-05-18T12:00:38.345Z,69.00
2018-05-18T12:04:00.210Z,69.00
2018-05-18T12:07:19.710Z,69.00
2018-05-18T12:10:25.189Z,68.80
2018-05-18T12:13:29.625Z,68.00
2018-05-18T12:16:34.048Z,66.60
2018-05-18T12:19:42.658Z,66.90
2018-05-18T12:22:46.066Z,66.90
2018-05-18T12:26:13.713Z,66.70
2018-05-18T12:29:17.127Z,66.70
2018-05-18T12:32:22.994Z,66.80
2018-05-18T12:35:39.525Z,67.10
2018-05-18T12:42:23.425Z,66.40
2018-05-18T12:45:33.474Z,66.30
2018-05-18T12:48:35.941Z,64.90
2018-05-18T12:51:38.411Z,65.30
2018-05-18T12:54:40.875Z,65.60
2018-05-18T12:58:04.482Z,65.60
2018-05-18T13:01:14.352Z,65.20
2018-05-18T13:04:17.766Z,65.00
2018-05-18T13:11:03.606Z,65.50
2018-05-18T13:14:19.818Z,65.50
2018-05-18T13:17:28.880Z,65.50
2018-05-18T13:20:43.523Z,65.70
2018-05-18T13:23:51.777Z,65.20
2018-05-18T13:27:07.310Z,65.10
2018-05-18T13:30:09.758Z,65.40
2018-05-18T13:33:18.472Z,66.00
2018-05-18T13:36:22.886Z,65.90
2018-05-18T13:39:43.632Z,66.20
2018-05-18T13:42:51.974Z,65.90
2018-05-18T13:46:08.750Z,64.50
2018-05-18T13:49:11.213Z,64.40
2018-05-18T13:55:45.423Z,64.80
2018-05-18T13:58:52.213Z,64.80
2018-05-18T14:01:56.629Z,66.00
2018-05-18T14:05:03.109Z,65.80
2018-05-18T14:08:07.326Z,66.20
2018-05-18T14:11:11.526Z,66.30
2018-05-18T14:14:22.402Z,66.20
2018-05-18T14:17:28.578Z,66.20
2018-05-18T14:20:34.022Z,66.10
2018-05-18T14:23:51.597Z,65.90
2018-05-18T14:27:10.858Z,65.30
2018-05-18T14:30:23.008Z,64.50
2018-05-18T14:33:31.346Z,65.40
2018-05-18T14:36:36.478Z,64.60
2018-05-18T14:39:56.110Z,64.50
2018-05-18T14:43:06.202Z,64.50
2018-05-18T14:46:10.633Z,64.50
2018-05-18T14:49:19.953Z,64.70
2018-05-18T14:52:22.410Z,64.90
2018-05-18T14:55:25.869Z,64.60
2018-05-18T14:58:43.230Z,64.00
2018-05-18T15:01:49.030Z,64.00
2018-05-18T15:04:55.006Z,64.40
2018-05-18T15:08:03.717Z,64.50
2018-05-18T15:11:22.422Z,63.90
2018-05-18T15:17:57.326Z,64.00
2018-05-18T15:21:10.336Z,64.40
2018-05-18T15:24:16.737Z,64.20
2018-05-18T15:27:19.953Z,64.00
2018-05-18T15:30:25.568Z,64.00
2018-05-18T15:33:28.046Z,63.60
2018-05-18T15:36:48.582Z,64.20
2018-05-18T15:39:51.038Z,64.00
2018-05-18T15:42:54.251Z,64.00
2018-05-18T15:45:56.717Z,64.00
2018-05-18T15:48:59.179Z,63.60
2018-05-18T15:52:02.402Z,63.60
2018-05-18T15:55:04.866Z,63.60
2018-05-18T15:58:07.322Z,63.10
2018-05-18T16:01:10.554Z,62.90
2018-05-18T16:04:13.099Z,63.70
2018-05-18T16:07:15.465Z,63.10
2018-05-18T16:10:18.713Z,64.70
2018-05-18T16:13:21.179Z,63.80
2018-05-18T16:16:23.650Z,64.00
2018-05-18T16:19:26.105Z,63.60
2018-05-18T16:22:29.318Z,62.70
2018-05-18T16:25:31.778Z,62.70
2018-05-18T16:28:34.234Z,61.30
2018-05-18T16:31:36.702Z,61.00
2018-05-18T16:34:39.166Z,60.40
2018-05-18T16:37:43.606Z,60.40
2018-05-18T16:40:46.075Z,60.70
2018-05-18T16:43:48.510Z,60.50
2018-05-18T16:46:51.028Z,60.60
2018-05-18T16:49:53.439Z,60.60
2018-05-18T16:52:56.649Z,60.60
2018-05-18T16:55:59.125Z,60.50
2018-05-18T16:59:01.574Z,60.30
2018-05-18T17:02:04.806Z,62.40
2018-05-18T17:05:07.270Z,62.20
2018-05-18T17:08:09.717Z,61.80
2018-05-18T17:11:12.953Z,63.10
2018-05-18T17:14:15.411Z,63.10
2018-05-18T17:17:17.869Z,63.40
2018-05-18T17:20:21.159Z,62.60
2018-05-18T17:23:23.550Z,62.60
2018-05-18T17:26:26.782Z,64.80
2018-05-18T17:29:29.230Z,64.80
2018-05-18T17:32:31.690Z,65.80
2018-05-18T17:39:23.486Z,66.50
2018-05-18T17:42:27.009Z,67.90
2018-05-18T17:45:29.406Z,68.10
2018-05-18T17:48:31.849Z,66.30
2018-05-18T17:51:34.308Z,67.30
2018-05-18T17:54:36.771Z,66.30
2018-05-18T17:57:39.225Z,66.70
2018-05-18T18:00:42.471Z,67.50
2018-05-18T18:03:44.904Z,67.50
2018-05-18T18:06:47.366Z,67.70
2018-05-18T18:09:49.813Z,68.10
2018-05-18T18:12:52.281Z,68.30
2018-05-18T18:15:54.746Z,68.70
2018-05-18T18:18:57.202Z,68.10
2018-05-18T18:22:00.474Z,68.70
2018-05-18T18:25:03.697Z,69.40
2018-05-18T18:28:06.158Z,69.40
2018-05-18T18:31:08.626Z,67.80
2018-05-18T18:34:11.847Z,69.30
2018-05-18T18:37:14.301Z,69.30
2018-05-18T18:40:17.522Z,68.50
2018-05-18T18:43:19.989Z,68.60
2018-05-18T18:46:22.454Z,68.80
2018-05-18T18:49:24.903Z,69.60
2018-05-18T18:52:27.361Z,70.00
2018-05-18T18:55:29.817Z,70.50
2018-05-18T18:58:32.284Z,70.90
2018-05-18T19:01:34.750Z,70.90
2018-05-18T19:04:37.199Z,71.50
2018-05-18T19:07:40.440Z,71.50
2018-05-18T19:10:42.881Z,71.40
2018-05-18T19:13:45.340Z,71.20
2018-05-18T19:16:47.802Z,71.60
2018-05-18T19:19:50.262Z,72.20
2018-05-18T19:22:52.729Z,72.50
2018-05-18T19:25:55.183Z,72.60
2018-05-18T19:28:57.666Z,72.80
2018-05-18T19:32:00.138Z,73.10
2018-05-18T19:35:02.596Z,73.30
2018-05-18T19:38:05.072Z,73.30
2018-05-18T19:41:08.336Z,74.30
2018-05-18T19:44:10.830Z,74.30
2018-05-18T19:47:14.096Z,75.20
2018-05-18T19:50:16.578Z,75.10
2018-05-18T19:53:19.059Z,75.40
2018-05-18T19:56:21.561Z,75.40
2018-05-18T19:59:24.798Z,74.80
2018-05-18T20:02:27.284Z,74.70
2018-05-18T20:05:29.754Z,74.70
2018-05-18T20:08:32.238Z,74.70
2018-05-18T20:11:34.728Z,74.70
2018-05-18T20:14:37.190Z,74.60
2018-05-18T20:17:39.679Z,74.80
2018-05-18T20:20:42.139Z,75.10
2018-05-18T20:23:44.642Z,75.40
2018-05-18T20:26:47.109Z,75.40
2018-05-18T20:29:49.575Z,75.60
2018-05-18T20:32:52.835Z,75.10
2018-05-18T20:35:55.521Z,75.60
2018-05-18T20:38:58.011Z,75.60
2018-05-18T20:42:00.486Z,75.80
2018-05-18T20:45:03.937Z,75.80
2018-05-18T20:48:06.370Z,75.50
2018-05-18T20:51:08.821Z,76.00
2018-05-18T20:54:12.050Z,76.50
2018-05-18T20:57:14.510Z,76.40
2018-05-18T21:00:16.965Z,76.60
2018-05-18T21:03:20.206Z,76.70
2018-05-18T21:06:22.658Z,76.50
2018-05-18T21:09:25.128Z,76.40
2018-05-18T21:12:27.585Z,76.50
2018-05-18T21:15:30.807Z,76.00
2018-05-18T21:18:33.272Z,75.90
2018-05-18T21:21:35.709Z,76.00
2018-05-18T21:24:38.173Z,76.00
2018-05-18T21:27:40.633Z,76.00
2018-05-18T21:30:43.086Z,76.00
2018-05-18T21:33:45.541Z,75.80
2018-05-18T21:36:48.762Z,75.80
2018-05-18T21:39:51.228Z,75.60
2018-05-18T21:42:53.685Z,75.80
2018-05-18T21:45:56.902Z,76.10
2018-05-18T21:48:59.365Z,76.00
2018-05-18T21:52:02.594Z,76.30
2018-05-18T21:55:05.055Z,76.20
2018-05-18T21:58:07.515Z,75.80
2018-05-18T22:01:10.730Z,76.20
2018-05-18T22:04:13.201Z,76.10
2018-05-18T22:07:15.650Z,76.30
2018-05-18T22:10:18.869Z,77.00
2018-05-18T22:13:21.326Z,76.90
2018-05-18T22:16:24.544Z,76.80
2018-05-18T22:19:27.010Z,76.80
2018-05-18T22:22:29.457Z,76.20
2018-05-18T22:25:31.919Z,76.40
2018-05-18T22:28:34.369Z,75.90
2018-05-18T22:31:36.822Z,76.10
2018-05-18T22:34:39.295Z,76.20
2018-05-18T22:37:41.745Z,76.10
2018-05-18T22:40:45.038Z,77.80
2018-05-18T22:43:47.503Z,76.80
2018-05-18T22:46:49.949Z,76.60
2018-05-18T22:49:53.173Z,76.70
2018-05-18T22:52:55.627Z,76.20
2018-05-18T22:55:58.093Z,76.40
2018-05-18T22:59:00.550Z,76.20
2018-05-18T23:02:03.002Z,75.80
2018-05-18T23:05:06.225Z,75.60
2018-05-18T23:08:08.679Z,75.50
2018-05-18T23:11:11.902Z,75.70
2018-05-18T23:14:14.370Z,76.40
2018-05-18T23:17:16.813Z,76.00
2018-05-18T23:20:20.049Z,75.90
2018-05-18T23:23:22.488Z,75.90
2018-05-18T23:26:25.714Z,76.00
2018-05-18T23:29:28.184Z,76.00
2018-05-18T23:32:30.629Z,76.00
2018-05-18T23:35:33.089Z,76.40
2018-05-18T23:38:35.546Z,76.60
2018-05-18T23:41:38.012Z,76.70
2018-05-18T23:44:40.469Z,76.90
2018-05-18T23:47:42.916Z,77.00
2018-05-18T23:50:46.147Z,77.20
2018-05-18T23:53:48.595Z,77.10
2018-05-18T23:56:51.822Z,77.90
2018-05-18T23:59:54.266Z,77.90
